DEN weather

Denver International Airport
Denver, Colorado, United States

Public forecast

Using degrees Fahrenheit for public forecast. Weather courtesy of forecast.io.

Current aviation weather report (METAR) for Denver International Airport

Retrieved 2020/04/04 22:53 UTC (38 minutes ago):

KDEN 042253Z 15009G16KT 10SM FEW100 SCT150 14/M04 A2980 RMK AO2 SLP071 T01441044

Aviation forecast (TAF) for Denver International Airport

Retrieved 2020/04/04 18:39 UTC (5 hours ago):

TAF KDEN 041736Z 0418/0524 VRB05KT P6SM FEW100 FM042000 15012G18KT P6SM SCT080 BKN120 FM050500 21012KT P6SM SCT120 BKN220